sensor_id;sensor_type;location;lat;lon;timestamp;pressure;altitude;pressure_sealevel;temperature;humidity
10948;BME280;5526;42.070;24.752;2023-06-14T00:01:34;98594.66;;;20.77;100.00
10948;BME280;5526;42.070;24.752;2023-06-14T00:04:01;98610.69;;;20.77;100.00
10948;BME280;5526;42.070;24.752;2023-06-14T00:06:30;98611.34;;;20.74;100.00
10948;BME280;5526;42.070;24.752;2023-06-14T00:09:00;98611.28;;;20.83;100.00
10948;BME280;5526;42.070;24.752;2023-06-14T00:11:28;98605.59;;;20.84;100.00
10948;BME280;5526;42.070;24.752;2023-06-14T00:13:56;98602.13;;;20.83;100.00
10948;BME280;5526;42.070;24.752;2023-06-14T00:16:23;98602.72;;;20.89;100.00
10948;BME280;5526;42.070;24.752;2023-06-14T00:18:50;98598.41;;;20.97;100.00
10948;BME280;5526;42.070;24.752;2023-06-14T00:21:17;98602.44;;;21.03;100.00
10948;BME280;5526;42.070;24.752;2023-06-14T00:23:46;98602.69;;;21.10;100.00
10948;BME280;5526;42.070;24.752;2023-06-14T00:26:14;98605.00;;;21.11;100.00
10948;BME280;5526;42.070;24.752;2023-06-14T00:28:41;98602.81;;;21.13;100.00
10948;BME280;5526;42.070;24.752;2023-06-14T00:31:08;98597.56;;;21.17;100.00
10948;BME280;5526;42.070;24.752;2023-06-14T00:33:35;98597.22;;;21.18;100.00
10948;BME280;5526;42.070;24.752;2023-06-14T00:36:03;98599.56;;;21.20;100.00
10948;BME280;5526;42.070;24.752;2023-06-14T00:38:30;98593.00;;;21.17;100.00
10948;BME280;5526;42.070;24.752;2023-06-14T00:40:57;98591.69;;;21.23;100.00
10948;BME280;5526;42.070;24.752;2023-06-14T00:43:25;98586.34;;;21.23;100.00
10948;BME280;5526;42.070;24.752;2023-06-14T00:45:52;98585.97;;;21.25;100.00
10948;BME280;5526;42.070;24.752;2023-06-14T00:48:20;98585.22;;;21.24;100.00
10948;BME280;5526;42.070;24.752;2023-06-14T00:50:48;98581.41;;;21.25;100.00
10948;BME280;5526;42.070;24.752;2023-06-14T00:53:16;98582.97;;;21.26;100.00
10948;BME280;5526;42.070;24.752;2023-06-14T00:55:44;98583.19;;;21.21;100.00
10948;BME280;5526;42.070;24.752;2023-06-14T00:58:11;98581.50;;;21.17;100.00
10948;BME280;5526;42.070;24.752;2023-06-14T01:00:39;98569.25;;;21.16;100.00
10948;BME280;5526;42.070;24.752;2023-06-14T01:03:06;98576.25;;;21.08;100.00
10948;BME280;5526;42.070;24.752;2023-06-14T01:05:38;98577.13;;;21.00;100.00
10948;BME280;5526;42.070;24.752;2023-06-14T01:08:14;98575.97;;;20.89;100.00
10948;BME280;5526;42.070;24.752;2023-06-14T01:10:52;98576.50;;;20.83;100.00
10948;BME280;5526;42.070;24.752;2023-06-14T01:13:21;98567.25;;;20.80;100.00
10948;BME280;5526;42.070;24.752;2023-06-14T01:15:52;98574.22;;;20.93;100.00
10948;BME280;5526;42.070;24.752;2023-06-14T01:18:19;98573.88;;;20.95;100.00
10948;BME280;5526;42.070;24.752;2023-06-14T01:20:47;98572.44;;;20.97;100.00
10948;BME280;5526;42.070;24.752;2023-06-14T01:23:18;98566.75;;;20.99;100.00
10948;BME280;5526;42.070;24.752;2023-06-14T01:25:45;98563.88;;;20.83;100.00
10948;BME280;5526;42.070;24.752;2023-06-14T01:28:15;98570.44;;;20.73;100.00
10948;BME280;5526;42.070;24.752;2023-06-14T01:30:44;98567.44;;;20.75;100.00
10948;BME280;5526;42.070;24.752;2023-06-14T01:33:14;98564.97;;;20.70;100.00
10948;BME280;5526;42.070;24.752;2023-06-14T01:35:43;98561.78;;;20.56;100.00
10948;BME280;5526;42.070;24.752;2023-06-14T01:38:12;98571.34;;;20.45;100.00
10948;BME280;5526;42.070;24.752;2023-06-14T01:40:42;98573.22;;;20.44;100.00
10948;BME280;5526;42.070;24.752;2023-06-14T01:43:12;98561.63;;;20.40;100.00
10948;BME280;5526;42.070;24.752;2023-06-14T01:45:40;98570.34;;;20.29;100.00
10948;BME280;5526;42.070;24.752;2023-06-14T01:48:08;98578.38;;;20.29;100.00
10948;BME280;5526;42.070;24.752;2023-06-14T01:50:35;98563.31;;;20.24;100.00
10948;BME280;5526;42.070;24.752;2023-06-14T01:53:02;98572.56;;;20.27;100.00
10948;BME280;5526;42.070;24.752;2023-06-14T01:55:29;98570.22;;;20.25;100.00
10948;BME280;5526;42.070;24.752;2023-06-14T01:58:04;98571.19;;;20.21;100.00
10948;BME280;5526;42.070;24.752;2023-06-14T02:00:31;98574.59;;;20.30;100.00
10948;BME280;5526;42.070;24.752;2023-06-14T02:02:58;98567.22;;;20.27;100.00
10948;BME280;5526;42.070;24.752;2023-06-14T02:05:26;98575.53;;;20.34;100.00
10948;BME280;5526;42.070;24.752;2023-06-14T02:07:53;98570.50;;;20.32;100.00
10948;BME280;5526;42.070;24.752;2023-06-14T02:10:20;98575.53;;;20.34;100.00
10948;BME280;5526;42.070;24.752;2023-06-14T02:12:47;98578.63;;;20.36;100.00
10948;BME280;5526;42.070;24.752;2023-06-14T02:15:16;98574.41;;;20.35;100.00
10948;BME280;5526;42.070;24.752;2023-06-14T02:17:43;98578.03;;;20.30;100.00
10948;BME280;5526;42.070;24.752;2023-06-14T02:20:11;98578.84;;;20.31;100.00
10948;BME280;5526;42.070;24.752;2023-06-14T02:22:39;98578.38;;;20.29;100.00
10948;BME280;5526;42.070;24.752;2023-06-14T02:25:07;98577.44;;;20.25;100.00
10948;BME280;5526;42.070;24.752;2023-06-14T02:27:34;98575.78;;;20.20;100.00
10948;BME280;5526;42.070;24.752;2023-06-14T02:30:02;98573.88;;;20.21;100.00
10948;BME280;5526;42.070;24.752;2023-06-14T02:32:30;98574.53;;;20.18;100.00
10948;BME280;5526;42.070;24.752;2023-06-14T02:34:59;98574.53;;;20.18;100.00
10948;BME280;5526;42.070;24.752;2023-06-14T02:37:26;98573.31;;;20.15;100.00
10948;BME280;5526;42.070;24.752;2023-06-14T02:39:53;98580.53;;;20.15;100.00
10948;BME280;5526;42.070;24.752;2023-06-14T02:42:21;98583.22;;;20.06;100.00
10948;BME280;5526;42.070;24.752;2023-06-14T02:44:48;98589.19;;;20.12;100.00
10948;BME280;5526;42.070;24.752;2023-06-14T02:47:16;98585.41;;;20.13;100.00
10948;BME280;5526;42.070;24.752;2023-06-14T02:49:45;98591.34;;;20.18;100.00
10948;BME280;5526;42.070;24.752;2023-06-14T02:52:12;98583.91;;;20.24;100.00
10948;BME280;5526;42.070;24.752;2023-06-14T02:54:39;98577.66;;;20.20;100.00
10948;BME280;5526;42.070;24.752;2023-06-14T02:57:07;98590.16;;;20.28;100.00
10948;BME280;5526;42.070;24.752;2023-06-14T02:59:34;98587.31;;;20.33;100.00
10948;BME280;5526;42.070;24.752;2023-06-14T03:02:01;98585.09;;;20.35;100.00
10948;BME280;5526;42.070;24.752;2023-06-14T03:04:28;98586.22;;;20.34;100.00
10948;BME280;5526;42.070;24.752;2023-06-14T03:07:01;98592.19;;;20.31;100.00
10948;BME280;5526;42.070;24.752;2023-06-14T03:09:34;98603.63;;;20.19;100.00
10948;BME280;5526;42.070;24.752;2023-06-14T03:12:02;98607.69;;;20.17;100.00
10948;BME280;5526;42.070;24.752;2023-06-14T03:14:30;98607.44;;;20.10;100.00
10948;BME280;5526;42.070;24.752;2023-06-14T03:16:57;98609.03;;;20.02;100.00
10948;BME280;5526;42.070;24.752;2023-06-14T03:19:24;98616.31;;;19.93;100.00
10948;BME280;5526;42.070;24.752;2023-06-14T03:21:52;98610.84;;;19.90;100.00
10948;BME280;5526;42.070;24.752;2023-06-14T03:24:24;98615.06;;;19.91;100.00
10948;BME280;5526;42.070;24.752;2023-06-14T03:26:52;98617.81;;;19.74;100.00
10948;BME280;5526;42.070;24.752;2023-06-14T03:29:19;98617.50;;;19.75;100.00
10948;BME280;5526;42.070;24.752;2023-06-14T03:31:57;98623.50;;;19.72;100.00
10948;BME280;5526;42.070;24.752;2023-06-14T03:34:25;98614.66;;;19.80;100.00
10948;BME280;5526;42.070;24.752;2023-06-14T03:36:52;98628.34;;;19.79;100.00
10948;BME280;5526;42.070;24.752;2023-06-14T03:39:19;98630.25;;;19.70;100.00
10948;BME280;5526;42.070;24.752;2023-06-14T03:41:48;98632.28;;;19.73;100.00
10948;BME280;5526;42.070;24.752;2023-06-14T03:44:16;98633.56;;;19.67;100.00
10948;BME280;5526;42.070;24.752;2023-06-14T03:46:44;98632.53;;;19.51;100.00
10948;BME280;5526;42.070;24.752;2023-06-14T03:49:11;98640.56;;;19.51;100.00
10948;BME280;5526;42.070;24.752;2023-06-14T03:51:39;98645.53;;;19.61;100.00
10948;BME280;5526;42.070;24.752;2023-06-14T03:54:06;98647.41;;;19.60;100.00
10948;BME280;5526;42.070;24.752;2023-06-14T03:56:34;98639.56;;;19.55;100.00
10948;BME280;5526;42.070;24.752;2023-06-14T03:59:03;98652.75;;;19.60;100.00
10948;BME280;5526;42.070;24.752;2023-06-14T04:01:30;98652.25;;;19.67;100.00
10948;BME280;5526;42.070;24.752;2023-06-14T04:03:59;98652.75;;;19.60;100.00
10948;BME280;5526;42.070;24.752;2023-06-14T04:06:26;98651.81;;;19.56;100.00
10948;BME280;5526;42.070;24.752;2023-06-14T04:08:58;98655.78;;;19.50;100.00
10948;BME280;5526;42.070;24.752;2023-06-14T04:11:28;98654.81;;;19.55;100.00
10948;BME280;5526;42.070;24.752;2023-06-14T04:13:55;98645.28;;;19.45;100.00
10948;BME280;5526;42.070;24.752;2023-06-14T04:16:23;98650.00;;;19.40;100.00
10948;BME280;5526;42.070;24.752;2023-06-14T04:18:50;98653.44;;;19.40;100.00
10948;BME280;5526;42.070;24.752;2023-06-14T04:21:19;98653.25;;;19.54;100.00
10948;BME280;5526;42.070;24.752;2023-06-14T04:23:46;98653.34;;;19.66;100.00
10948;BME280;5526;42.070;24.752;2023-06-14T04:26:13;98653.34;;;19.66;100.00
10948;BME280;5526;42.070;24.752;2023-06-14T04:28:41;98656.25;;;19.90;100.00
10948;BME280;5526;42.070;24.752;2023-06-14T04:31:11;98662.66;;;19.97;100.00
10948;BME280;5526;42.070;24.752;2023-06-14T04:33:40;98657.44;;;20.01;100.00
10948;BME280;5526;42.070;24.752;2023-06-14T04:36:11;98657.59;;;20.04;100.00
10948;BME280;5526;42.070;24.752;2023-06-14T04:38:39;98664.19;;;19.98;100.00
10948;BME280;5526;42.070;24.752;2023-06-14T04:41:06;98667.06;;;19.93;100.00
10948;BME280;5526;42.070;24.752;2023-06-14T04:43:37;98666.28;;;19.93;100.00
10948;BME280;5526;42.070;24.752;2023-06-14T04:46:05;98665.22;;;19.85;100.00
10948;BME280;5526;42.070;24.752;2023-06-14T04:48:35;98672.53;;;19.97;100.00
10948;BME280;5526;42.070;24.752;2023-06-14T04:51:03;98668.72;;;20.06;100.00
10948;BME280;5526;42.070;24.752;2023-06-14T05:04:57;98644.09;;;20.92;100.00
10948;BME280;5526;42.070;24.752;2023-06-14T05:07:24;98618.41;;;20.58;100.00
10948;BME280;5526;42.070;24.752;2023-06-14T05:09:52;98671.22;;;21.02;100.00
10948;BME280;5526;42.070;24.752;2023-06-14T05:12:20;98663.66;;;21.04;100.00
10948;BME280;5526;42.070;24.752;2023-06-14T05:14:49;98631.56;;;20.83;100.00
10948;BME280;5526;42.070;24.752;2023-06-14T05:17:17;98617.75;;;20.61;100.00
10948;BME280;5526;42.070;24.752;2023-06-14T05:19:46;98668.28;;;20.95;100.00
10948;BME280;5526;42.070;24.752;2023-06-14T05:22:15;98635.16;;;20.67;100.00
10948;BME280;5526;42.070;24.752;2023-06-14T05:24:43;98659.09;;;20.84;100.00
10948;BME280;5526;42.070;24.752;2023-06-14T05:27:11;98627.78;;;20.64;100.00
10948;BME280;5526;42.070;24.752;2023-06-14T05:29:39;98648.03;;;20.85;100.00
10948;BME280;5526;42.070;24.752;2023-06-14T05:32:08;98672.78;;;21.03;100.00
10948;BME280;5526;42.070;24.752;2023-06-14T05:34:35;98672.13;;;21.06;100.00
10948;BME280;5526;42.070;24.752;2023-06-14T05:37:03;98647.34;;;20.97;100.00
10948;BME280;5526;42.070;24.752;2023-06-14T05:39:32;98652.28;;;21.07;100.00
10948;BME280;5526;42.070;24.752;2023-06-14T05:42:00;98650.66;;;21.15;100.00
10948;BME280;5526;42.070;24.752;2023-06-14T05:44:28;98692.81;;;21.18;100.00
10948;BME280;5526;42.070;24.752;2023-06-14T05:46:55;98689.88;;;21.43;100.00
10948;BME280;5526;42.070;24.752;2023-06-14T05:49:23;98659.88;;;21.50;100.00
10948;BME280;5526;42.070;24.752;2023-06-14T05:51:50;98681.03;;;21.75;100.00
10948;BME280;5526;42.070;24.752;2023-06-14T05:54:18;98676.06;;;21.65;100.00
10948;BME280;5526;42.070;24.752;2023-06-14T05:56:47;98699.09;;;21.66;100.00
10948;BME280;5526;42.070;24.752;2023-06-14T05:59:15;98681.00;;;21.63;100.00
10948;BME280;5526;42.070;24.752;2023-06-14T06:01:42;98689.31;;;21.82;100.00
10948;BME280;5526;42.070;24.752;2023-06-14T06:04:10;98674.69;;;21.92;100.00
10948;BME280;5526;42.070;24.752;2023-06-14T06:06:38;98690.88;;;22.19;100.00
10948;BME280;5526;42.070;24.752;2023-06-14T06:09:05;98682.81;;;22.31;100.00
10948;BME280;5526;42.070;24.752;2023-06-14T06:11:33;98667.28;;;22.37;100.00
10948;BME280;5526;42.070;24.752;2023-06-14T06:14:02;98720.91;;;22.37;100.00
10948;BME280;5526;42.070;24.752;2023-06-14T06:16:30;98729.59;;;22.46;100.00
10948;BME280;5526;42.070;24.752;2023-06-14T06:18:57;98672.56;;;22.21;100.00
10948;BME280;5526;42.070;24.752;2023-06-14T06:21:25;98735.09;;;22.73;100.00
10948;BME280;5526;42.070;24.752;2023-06-14T06:23:53;98693.84;;;22.66;100.00
10948;BME280;5526;42.070;24.752;2023-06-14T06:26:21;98741.34;;;23.17;100.00
10948;BME280;5526;42.070;24.752;2023-06-14T06:28:49;98727.50;;;23.03;100.00
10948;BME280;5526;42.070;24.752;2023-06-14T06:31:18;98712.19;;;23.03;100.00
10948;BME280;5526;42.070;24.752;2023-06-14T06:33:46;98668.72;;;23.13;100.00
10948;BME280;5526;42.070;24.752;2023-06-14T06:36:13;98737.88;;;23.16;100.00
10948;BME280;5526;42.070;24.752;2023-06-14T06:38:41;98684.06;;;23.13;100.00
10948;BME280;5526;42.070;24.752;2023-06-14T06:41:09;98727.66;;;23.49;100.00
10948;BME280;5526;42.070;24.752;2023-06-14T06:43:36;98678.44;;;23.45;100.00
10948;BME280;5526;42.070;24.752;2023-06-14T06:46:04;98683.31;;;23.71;100.00
10948;BME280;5526;42.070;24.752;2023-06-14T06:48:33;98704.47;;;23.88;100.00
10948;BME280;5526;42.070;24.752;2023-06-14T06:51:00;98689.97;;;23.61;100.00
10948;BME280;5526;42.070;24.752;2023-06-14T06:53:28;98720.97;;;24.02;100.00
10948;BME280;5526;42.070;24.752;2023-06-14T06:55:56;98740.38;;;24.26;100.00
10948;BME280;5526;42.070;24.752;2023-06-14T06:58:23;98744.56;;;24.24;100.00
10948;BME280;5526;42.070;24.752;2023-06-14T07:00:51;98712.88;;;24.33;100.00
10948;BME280;5526;42.070;24.752;2023-06-14T07:03:19;98770.38;;;24.60;100.00
10948;BME280;5526;42.070;24.752;2023-06-14T07:05:48;98738.28;;;24.35;100.00
10948;BME280;5526;42.070;24.752;2023-06-14T07:08:16;98746.16;;;24.60;100.00
10948;BME280;5526;42.070;24.752;2023-06-14T07:10:44;98745.69;;;24.73;99.59
10948;BME280;5526;42.070;24.752;2023-06-14T07:13:12;98738.22;;;24.82;99.24
10948;BME280;5526;42.070;24.752;2023-06-14T07:15:39;98708.03;;;24.92;97.94
10948;BME280;5526;42.070;24.752;2023-06-14T07:18:07;98694.22;;;24.40;98.60
10948;BME280;5526;42.070;24.752;2023-06-14T07:20:35;98741.28;;;24.65;100.00
10948;BME280;5526;42.070;24.752;2023-06-14T07:23:05;98715.53;;;24.48;98.40
10948;BME280;5526;42.070;24.752;2023-06-14T07:25:33;98718.13;;;24.45;98.75
10948;BME280;5526;42.070;24.752;2023-06-14T07:28:01;98761.56;;;25.13;98.64
10948;BME280;5526;42.070;24.752;2023-06-14T07:30:28;98757.44;;;25.57;96.99
10948;BME280;5526;42.070;24.752;2023-06-14T07:32:57;98709.88;;;25.26;95.79
10948;BME280;5526;42.070;24.752;2023-06-14T07:35:24;98699.84;;;25.87;92.57
10948;BME280;5526;42.070;24.752;2023-06-14T07:37:52;98704.47;;;26.35;92.15
10948;BME280;5526;42.070;24.752;2023-06-14T07:40:22;98693.03;;;26.45;89.88
10948;BME280;5526;42.070;24.752;2023-06-14T07:42:49;98724.34;;;26.50;89.31
10948;BME280;5526;42.070;24.752;2023-06-14T07:45:18;98736.25;;;26.71;89.33
10948;BME280;5526;42.070;24.752;2023-06-14T07:47:45;98701.69;;;26.58;88.40
10948;BME280;5526;42.070;24.752;2023-06-14T07:50:13;98712.31;;;26.44;89.13
10948;BME280;5526;42.070;24.752;2023-06-14T07:52:41;98686.78;;;26.38;88.67
10948;BME280;5526;42.070;24.752;2023-06-14T07:55:09;98681.63;;;26.29;88.39
10948;BME280;5526;42.070;24.752;2023-06-14T07:57:38;98734.78;;;26.51;89.23
10948;BME280;5526;42.070;24.752;2023-06-14T08:00:06;98717.09;;;26.28;81.21
10948;BME280;5526;42.070;24.752;2023-06-14T08:02:37;98732.66;;;26.38;77.15
10948;BME280;5526;42.070;24.752;2023-06-14T08:05:05;98715.84;;;26.22;78.10
10948;BME280;5526;42.070;24.752;2023-06-14T08:07:34;98729.28;;;26.18;78.86
10948;BME280;5526;42.070;24.752;2023-06-14T08:10:01;98702.50;;;26.32;77.40
10948;BME280;5526;42.070;24.752;2023-06-14T08:12:29;98682.34;;;26.52;75.70
10948;BME280;5526;42.070;24.752;2023-06-14T08:14:58;98698.53;;;26.52;75.44
10948;BME280;5526;42.070;24.752;2023-06-14T08:17:26;98678.97;;;26.59;74.92
10948;BME280;5526;42.070;24.752;2023-06-14T08:19:54;98743.63;;;27.04;75.15
10948;BME280;5526;42.070;24.752;2023-06-14T08:22:23;98748.69;;;27.09;74.07
10948;BME280;5526;42.070;24.752;2023-06-14T08:24:53;98704.16;;;26.66;74.90
10948;BME280;5526;42.070;24.752;2023-06-14T08:27:21;98738.97;;;26.49;77.55
10948;BME280;5526;42.070;24.752;2023-06-14T08:29:49;98725.56;;;26.82;77.06
10948;BME280;5526;42.070;24.752;2023-06-14T08:32:19;98709.94;;;26.65;75.12
10948;BME280;5526;42.070;24.752;2023-06-14T08:34:46;98726.72;;;26.55;76.17
10948;BME280;5526;42.070;24.752;2023-06-14T08:37:14;98747.00;;;26.68;75.29
10948;BME280;5526;42.070;24.752;2023-06-14T08:39:42;98725.41;;;26.68;74.59
10948;BME280;5526;42.070;24.752;2023-06-14T08:42:10;98721.69;;;26.79;74.75
10948;BME280;5526;42.070;24.752;2023-06-14T08:44:37;98799.69;;;27.40;72.78
10948;BME280;5526;42.070;24.752;2023-06-14T08:47:06;98736.72;;;27.10;72.27
10948;BME280;5526;42.070;24.752;2023-06-14T08:49:36;98786.44;;;27.31;72.01
10948;BME280;5526;42.070;24.752;2023-06-14T08:52:06;98729.50;;;27.17;71.97
10948;BME280;5526;42.070;24.752;2023-06-14T08:54:36;98712.03;;;27.08;70.86
10948;BME280;5526;42.070;24.752;2023-06-14T08:57:11;98708.44;;;27.30;69.95
10948;BME280;5526;42.070;24.752;2023-06-14T08:59:46;98738.47;;;27.58;67.29
10948;BME280;5526;42.070;24.752;2023-06-14T09:02:15;98752.72;;;27.55;67.83
10948;BME280;5526;42.070;24.752;2023-06-14T09:04:45;98757.09;;;27.66;68.84
10948;BME280;5526;42.070;24.752;2023-06-14T09:07:15;98728.69;;;27.83;67.98
10948;BME280;5526;42.070;24.752;2023-06-14T09:09:43;98713.84;;;28.10;66.15
10948;BME280;5526;42.070;24.752;2023-06-14T09:12:11;98742.66;;;28.39;64.57
10948;BME280;5526;42.070;24.752;2023-06-14T09:14:39;98708.97;;;28.30;64.38
10948;BME280;5526;42.070;24.752;2023-06-14T09:17:08;98719.34;;;28.21;64.47
10948;BME280;5526;42.070;24.752;2023-06-14T09:19:36;98724.06;;;27.83;65.51
10948;BME280;5526;42.070;24.752;2023-06-14T09:22:05;98751.00;;;28.13;65.00
10948;BME280;5526;42.070;24.752;2023-06-14T09:24:37;98756.28;;;27.99;66.19
10948;BME280;5526;42.070;24.752;2023-06-14T09:27:05;98764.75;;;27.94;66.50
10948;BME280;5526;42.070;24.752;2023-06-14T09:29:33;98771.78;;;28.02;65.68
10948;BME280;5526;42.070;24.752;2023-06-14T09:32:01;98743.44;;;27.89;65.88
10948;BME280;5526;42.070;24.752;2023-06-14T09:34:29;98777.31;;;28.16;64.74
10948;BME280;5526;42.070;24.752;2023-06-14T09:36:57;98705.84;;;27.80;65.41
10948;BME280;5526;42.070;24.752;2023-06-14T09:39:26;98708.34;;;27.99;63.60
10948;BME280;5526;42.070;24.752;2023-06-14T09:41:53;98695.03;;;27.80;63.57
10948;BME280;5526;42.070;24.752;2023-06-14T09:44:21;98721.19;;;28.09;64.80
10948;BME280;5526;42.070;24.752;2023-06-14T09:46:51;98702.16;;;27.99;74.01
10948;BME280;5526;42.070;24.752;2023-06-14T09:49:18;98710.97;;;27.89;76.34
10948;BME280;5526;42.070;24.752;2023-06-14T09:51:50;98707.66;;;27.69;78.58
10948;BME280;5526;42.070;24.752;2023-06-14T09:54:22;98712.47;;;27.13;79.84
10948;BME280;5526;42.070;24.752;2023-06-14T09:56:52;98711.13;;;26.67;84.26
10948;BME280;5526;42.070;24.752;2023-06-14T09:59:22;98711.47;;;26.14;86.01
10948;BME280;5526;42.070;24.752;2023-06-14T10:01:58;98709.84;;;25.87;93.52
10948;BME280;5526;42.070;24.752;2023-06-14T10:04:27;98693.63;;;26.06;93.52
10948;BME280;5526;42.070;24.752;2023-06-14T10:06:56;98748.81;;;26.60;89.55
10948;BME280;5526;42.070;24.752;2023-06-14T10:09:25;98689.91;;;26.40;90.98
10948;BME280;5526;42.070;24.752;2023-06-14T10:11:55;98729.91;;;26.60;92.86
10948;BME280;5526;42.070;24.752;2023-06-14T10:14:23;98656.00;;;26.16;95.64
10948;BME280;5526;42.070;24.752;2023-06-14T10:16:58;98759.09;;;26.77;96.43
10948;BME280;5526;42.070;24.752;2023-06-14T10:19:34;98712.09;;;26.56;97.13
10948;BME280;5526;42.070;24.752;2023-06-14T10:22:07;98681.78;;;26.40;97.23
10948;BME280;5526;42.070;24.752;2023-06-14T10:24:40;98683.09;;;26.49;96.05
10948;BME280;5526;42.070;24.752;2023-06-14T10:27:13;98713.22;;;26.55;95.89
10948;BME280;5526;42.070;24.752;2023-06-14T10:30:05;98746.06;;;26.83;94.04
10948;BME280;5526;42.070;24.752;2023-06-14T10:32:34;98723.09;;;26.70;93.59
10948;BME280;5526;42.070;24.752;2023-06-14T10:35:04;98698.41;;;26.68;91.62
10948;BME280;5526;42.070;24.752;2023-06-14T10:37:33;98678.34;;;26.69;91.56
10948;BME280;5526;42.070;24.752;2023-06-14T10:40:01;98727.50;;;27.11;90.50
10948;BME280;5526;42.070;24.752;2023-06-14T10:42:33;98723.72;;;27.19;89.29
10948;BME280;5526;42.070;24.752;2023-06-14T10:45:01;98704.31;;;27.10;88.38
10948;BME280;5526;42.070;24.752;2023-06-14T10:47:29;98695.69;;;27.30;84.89
10948;BME280;5526;42.070;24.752;2023-06-14T10:50:03;98683.88;;;27.45;82.47
10948;BME280;5526;42.070;24.752;2023-06-14T10:52:34;98697.88;;;27.54;84.09
10948;BME280;5526;42.070;24.752;2023-06-14T10:55:05;98672.44;;;27.59;82.63
10948;BME280;5526;42.070;24.752;2023-06-14T10:57:37;98683.50;;;27.83;82.29
10948;BME280;5526;42.070;24.752;2023-06-14T11:00:07;98661.84;;;27.83;78.00
10948;BME280;5526;42.070;24.752;2023-06-14T11:03:29;98670.41;;;27.92;75.18
10948;BME280;5526;42.070;24.752;2023-06-14T11:05:58;98658.69;;;28.29;74.06
10948;BME280;5526;42.070;24.752;2023-06-14T11:11:42;98702.31;;;28.78;70.37
10948;BME280;5526;42.070;24.752;2023-06-14T11:14:11;98684.91;;;28.75;69.17
10948;BME280;5526;42.070;24.752;2023-06-14T11:16:39;98710.59;;;29.06;68.97
10948;BME280;5526;42.070;24.752;2023-06-14T11:19:07;98654.09;;;29.08;67.83
10948;BME280;5526;42.070;24.752;2023-06-14T11:21:40;98684.34;;;29.48;65.65
10948;BME280;5526;42.070;24.752;2023-06-14T11:24:10;98702.19;;;29.46;66.06
10948;BME280;5526;42.070;24.752;2023-06-14T11:26:38;98654.88;;;29.26;64.44
10948;BME280;5526;42.070;24.752;2023-06-14T11:29:06;98659.94;;;29.34;63.99
10948;BME280;5526;42.070;24.752;2023-06-14T11:31:35;98653.81;;;29.72;62.26
10948;BME280;5526;42.070;24.752;2023-06-14T11:34:03;98710.81;;;30.21;61.23
10948;BME280;5526;42.070;24.752;2023-06-14T11:36:34;98649.81;;;30.50;57.87
10948;BME280;5526;42.070;24.752;2023-06-14T11:39:02;98645.22;;;30.37;58.75
10948;BME280;5526;42.070;24.752;2023-06-14T11:41:38;98673.47;;;30.60;55.96
10948;BME280;5526;42.070;24.752;2023-06-14T11:44:06;98641.72;;;30.40;57.99
10948;BME280;5526;42.070;24.752;2023-06-14T11:46:37;98637.41;;;30.49;57.74
10948;BME280;5526;42.070;24.752;2023-06-14T11:49:06;98694.69;;;31.00;56.92
10948;BME280;5526;42.070;24.752;2023-06-14T11:51:35;98646.97;;;30.96;56.12
10948;BME280;5526;42.070;24.752;2023-06-14T11:54:04;98627.97;;;30.85;54.70
10948;BME280;5526;42.070;24.752;2023-06-14T11:56:32;98641.22;;;30.76;56.05
10948;BME280;5526;42.070;24.752;2023-06-14T11:59:02;98625.66;;;30.87;56.30
10948;BME280;5526;42.070;24.752;2023-06-14T12:01:31;98607.81;;;30.86;55.55
10948;BME280;5526;42.070;24.752;2023-06-14T12:04:00;98606.31;;;30.71;54.51
10948;BME280;5526;42.070;24.752;2023-06-14T12:06:30;98653.03;;;31.24;54.08
10948;BME280;5526;42.070;24.752;2023-06-14T12:09:03;98608.38;;;31.15;54.16
10948;BME280;5526;42.070;24.752;2023-06-14T12:11:34;98597.28;;;30.88;53.74
10948;BME280;5526;42.070;24.752;2023-06-14T12:14:03;98601.63;;;30.75;52.94
10948;BME280;5526;42.070;24.752;2023-06-14T12:16:32;98628.94;;;31.23;52.54
10948;BME280;5526;42.070;24.752;2023-06-14T12:19:11;98603.47;;;30.96;51.15
10948;BME280;5526;42.070;24.752;2023-06-14T12:21:39;98629.28;;;31.32;54.04
10948;BME280;5526;42.070;24.752;2023-06-14T12:24:08;98615.75;;;31.21;53.14
10948;BME280;5526;42.070;24.752;2023-06-14T12:26:41;98599.03;;;31.26;50.96
10948;BME280;5526;42.070;24.752;2023-06-14T12:29:08;98562.44;;;30.69;51.36
10948;BME280;5526;42.070;24.752;2023-06-14T12:31:38;98590.81;;;30.58;51.45
10948;BME280;5526;42.070;24.752;2023-06-14T12:34:05;98570.75;;;30.24;51.75
10948;BME280;5526;42.070;24.752;2023-06-14T12:36:34;98571.50;;;30.35;52.55
10948;BME280;5526;42.070;24.752;2023-06-14T12:39:07;98600.91;;;30.57;51.47
10948;BME280;5526;42.070;24.752;2023-06-14T12:41:35;98563.03;;;30.19;51.73
10948;BME280;5526;42.070;24.752;2023-06-14T12:44:04;98551.09;;;29.74;52.26
10948;BME280;5526;42.070;24.752;2023-06-14T12:46:31;98589.03;;;29.99;52.52
10948;BME280;5526;42.070;24.752;2023-06-14T12:48:59;98616.19;;;30.16;52.58
10948;BME280;5526;42.070;24.752;2023-06-14T12:51:27;98582.84;;;29.88;52.83
10948;BME280;5526;42.070;24.752;2023-06-14T12:53:56;98582.50;;;29.61;53.44
10948;BME280;5526;42.070;24.752;2023-06-14T12:56:24;98541.00;;;29.43;54.23
10948;BME280;5526;42.070;24.752;2023-06-14T12:58:52;98541.00;;;29.57;53.88
10948;BME280;5526;42.070;24.752;2023-06-14T13:01:20;98588.25;;;30.19;53.99
10948;BME280;5526;42.070;24.752;2023-06-14T13:03:48;98562.25;;;30.08;53.93
10948;BME280;5526;42.070;24.752;2023-06-14T13:06:17;98536.34;;;29.68;54.98
10948;BME280;5526;42.070;24.752;2023-06-14T13:08:45;98554.88;;;30.19;55.08
10948;BME280;5526;42.070;24.752;2023-06-14T13:11:14;98568.75;;;30.45;52.30
10948;BME280;5526;42.070;24.752;2023-06-14T13:13:42;98578.13;;;30.34;52.50
10948;BME280;5526;42.070;24.752;2023-06-14T13:16:10;98562.97;;;30.33;52.38
10948;BME280;5526;42.070;24.752;2023-06-14T13:18:39;98537.78;;;30.25;52.78